Flight Track Log - Related Links

Times and Time Zones

All times are in EDT time to prevent confusion due to time zone crossing. See the N27XP flight status page for this flight to view local times or setup timezone preferences in your user account.

Time Position Orientation Groundspeed Altitude Reporting Facility
EDT Latitude Longitude Course Direction KTS MPH feet Rate Location/Type
Thu 12:08:10 PM 35.8519 -78.8106 202° Southwest 193 222 1,300  Level Washington Center
Thu 12:08:46 PM 35.8181 -78.8272 202° Southwest 215 247 2,800 2,314 Climbing Washington Center
Thu 12:09:20 PM 35.7864 -78.8439 203° Southwest 261 300 4,000 2,400 Climbing Washington Center
Thu 12:09:41 PM 35.7611 -78.8531 196° South 272 313 5,000 2,754 Climbing Washington Center
Thu 12:10:21 PM 35.7169 -78.8614 189° South 276 318 6,800 2,495 Climbing Washington Center
Thu 12:11:22 PM 35.6456 -78.8022 146° Southeast 269 310 9,200 2,231 Climbing Washington Center
Thu 12:12:22 PM 35.5619 -78.7300 145° Southeast 307 353 11,300 2,542 Climbing Washington Center
Thu 12:13:20 PM 35.4686 -78.7161 173° South 329 379 14,200 2,370 Climbing Washington Center
Thu 12:14:21 PM 35.3814 -78.7000 171° South 329 379 16,000 1,770 Climbing Washington Center
Thu 12:15:22 PM 35.2961 -78.6867 173° South 334 384 17,800 1,765 Climbing Washington Center
Thu 12:16:20 PM 35.2047 -78.6703 172° South 334 384 19,500 1,780 Climbing Washington Center
Thu 12:17:20 PM 35.1092 -78.6539 172° South 339 390 21,300 1,500 Climbing Washington Center
Thu 12:18:20 PM 35.0072 -78.6400 174° South 354 407 22,500 1,289 Climbing Washington Center
Thu 12:19:21 PM 34.9131 -78.6517 186° South 354 407 23,900 1,339 Climbing Washington Center
Thu 12:20:21 PM 34.8386 -78.7069 211° Southwest 329 379 25,200 1,261 Climbing Washington Center
Thu 12:21:20 PM 34.7619 -78.7622 211° Southwest 323 372 26,400 950 Climbing Washington Center
Thu 12:22:21 PM 34.6856 -78.8172 211° Southwest 323 372 27,100 738 Climbing Washington Center
Thu 12:23:22 PM 34.6047 -78.8722 209° Southwest 329 379 27,900 810 Climbing Washington Center
Thu 12:24:27 PM 34.5067 -78.9394 209° Southwest 328 377 28,800 960 Climbing Jacksonville Center
Thu 12:25:27 PM 34.4314 -78.9983 213° Southwest 328 377 29,900 900 Climbing Jacksonville Center
Thu 12:26:27 PM 34.3539 -79.0519 210° Southwest 328 377 30,600 700 Climbing Jacksonville Center
Thu 12:27:27 PM 34.2719 -79.1058 209° Southwest 328 377 31,300 750 Climbing Jacksonville Center
Thu 12:28:27 PM 34.1944 -79.1619 211° Southwest 328 377 32,100 750 Climbing Jacksonville Center
Thu 12:29:27 PM 34.1125 -79.2181 210° Southwest 328 377 32,800 700 Climbing Jacksonville Center
Thu 12:30:27 PM 34.0347 -79.2692 209° Southwest 328 377 33,500 700 Climbing Jacksonville Center
Thu 12:31:27 PM 33.9550 -79.3250 210° Southwest 328 377 34,200 700 Climbing Jacksonville Center
Thu 12:32:27 PM 33.8750 -79.3758 208° Southwest 328 377 34,900 650 Climbing Jacksonville Center
Thu 12:33:27 PM 33.7994 -79.4311 211° Southwest 328 377 35,500 500 Climbing Jacksonville Center
Thu 12:34:27 PM 33.7256 -79.4792 208° Southwest 318 366 35,900 250 Climbing Jacksonville Center
Thu 12:35:27 PM 33.6456 -79.5319 209° Southwest 318 366 36,000 50 Climbing Jacksonville Center
Thu 12:36:27 PM 33.5678 -79.5872 211° Southwest 330 380 36,000  Level Jacksonville Center
Thu 12:37:27 PM 33.4836 -79.6428 209° Southwest 335 386 36,000  Level Jacksonville Center
Thu 12:38:27 PM 33.3994 -79.7006 210° Southwest 342 394 36,000  Level Jacksonville Center
Thu 12:39:27 PM 33.3133 -79.7558 208° Southwest 347 399 36,000  Level Jacksonville Center
Thu 12:40:27 PM 33.2272 -79.8161 210° Southwest 347 399 36,000  Level Jacksonville Center
Thu 12:41:27 PM 33.1428 -79.8711 209° Southwest 347 399 36,000  Level Jacksonville Center
Thu 12:42:27 PM 33.0544 -79.9261 208° Southwest 347 399 36,000  Level Jacksonville Center
Thu 12:43:27 PM 32.9683 -79.9883 211° Southwest 347 399 36,000  Level Jacksonville Center
Thu 12:44:27 PM 32.8817 -80.0431 208° Southwest 347 399 36,000  Level Jacksonville Center
Thu 12:45:27 PM 32.8017 -80.1047 213° Southwest 347 399 36,000  Level Jacksonville Center
Thu 12:46:27 PM 32.7194 -80.1642 211° Southwest 347 399 36,000  Level Jacksonville Center
Thu 12:47:27 PM 32.6375 -80.2258 212° Southwest 353 406 36,000  Level Jacksonville Center
Thu 12:48:27 PM 32.5553 -80.2875 212° Southwest 353 406 36,000  Level Jacksonville Center
Thu 12:49:27 PM 32.4833 -80.3411 212° Southwest 353 406 36,000  Level Jacksonville Center
Thu 12:51:27 PM 32.3186 -80.4614 212° Southwest 353 406 36,000  Level Jacksonville Center
Thu 12:52:27 PM 32.2364 -80.5250 213° Southwest 353 406 36,000  Level Jacksonville Center
Thu 12:53:27 PM 32.1517 -80.5836 210° Southwest 353 406 36,000  Level Jacksonville Center
Thu 12:54:27 PM 32.0736 -80.6419 212° Southwest 353 406 36,000  Level Jacksonville Center
Thu 12:55:27 PM 31.9806 -80.7078 211° Southwest 359 413 36,000  Level Jacksonville Center
Thu 12:56:27 PM 31.8961 -80.7686 211° Southwest 359 413 36,000  Level Jacksonville Center
Thu 12:57:27 PM 31.8197 -80.8242 212° Southwest 359 413 36,000  Level Jacksonville Center
Thu 12:58:27 PM 31.7247 -80.8897 210° Southwest 359 413 36,000  Level Jacksonville Center
Thu 12:59:27 PM 31.6422 -80.9525 213° Southwest 359 413 36,000  Level Jacksonville Center
Thu 01:00:27 PM 31.5636 -81.0053 210° Southwest 359 413 36,000  Level Jacksonville Center
Thu 01:01:27 PM 31.4708 -81.0731 212° Southwest 359 413 36,000  Level Jacksonville Center
Thu 01:02:27 PM 31.3922 -81.1281 211° Southwest 359 413 36,000  Level Jacksonville Center
Thu 01:03:27 PM 31.2883 -81.1567 193° South 366 421 36,000  Level Jacksonville Center
Thu 01:04:27 PM 31.1644 -81.1153 164° South 408 470 36,000 -350 Level Jacksonville Center
Thu 01:05:27 PM 31.0367 -81.0936 172° South 432 497 35,300 -800 Descending Jacksonville Center
Thu 01:06:27 PM 30.9200 -81.1056 185° South 437 503 34,400 -650 Descending Jacksonville Center
Thu 01:07:27 PM 30.8053 -81.1222 187° South 430 495 34,000 -200 Descending Jacksonville Center
Thu 01:08:27 PM 30.6950 -81.1436 189° South 417 480 34,000  Level Jacksonville Center
Thu 01:09:27 PM 30.5803 -81.1528 184° South 417 480 34,000  Level Jacksonville Center
Thu 01:10:27 PM 30.4572 -81.1503 179° South 424 488 34,000 -650 Level Jacksonville Center
Thu 01:11:27 PM 30.3381 -81.1428 177° South 429 494 32,700 -2,300 Descending Jacksonville Center
Thu 01:12:27 PM 30.2128 -81.1428 180° South 443 510 29,400 -3,050 Descending Jacksonville Center
Thu 01:13:27 PM 30.0894 -81.1378 178° South 443 510 26,600 -2,650 Descending Jacksonville Center
Thu 01:14:27 PM 29.9747 -81.1350 179° South 431 496 24,100 -1,300 Descending Jacksonville Center
Thu 01:15:27 PM 29.8661 -81.1322 179° South 416 479 24,000 -50 Descending Jacksonville Center
Thu 01:16:27 PM 29.7533 -81.1269 178° South 404 465 24,000  Level Jacksonville Center
Thu 01:17:27 PM 29.6425 -81.1267 180° South 404 465 24,000  Level Jacksonville Center
Thu 01:18:27 PM 29.5339 -81.1214 178° South 404 465 24,000 -950 Level Jacksonville Center
Thu 01:19:27 PM 29.4128 -81.1142 177° South 404 465 22,100 -2,450 Descending Jacksonville Center
Thu 01:20:27 PM 29.2958 -81.1139 180° South 417 480 19,100 -2,950 Descending Jacksonville Center
Thu 01:21:27 PM 29.1831 -81.1064 177° South 406 467 16,200 -2,850 Descending Jacksonville Center
Thu 01:22:27 PM 29.0744 -81.0964 175° South 406 467 13,400 -2,150 Descending Jacksonville Center
Thu 01:23:27 PM 28.9658 -81.0867 176° South 398 458 11,900 -1,000 Descending Jacksonville Center
Thu 01:24:27 PM 28.8592 -81.0767 175° South 391 450 11,400 -873 Descending Jacksonville Center
Thu 01:25:17 PM 28.7667 -81.0667 175° South 376 433 10,300 -1,558 Descending Orlando TRACON
Thu 01:26:11 PM 28.6833 -81.0667 180° South 316 364 8,700 -1,800 Descending Orlando TRACON
Thu 01:27:17 PM 28.6000 -81.0500 170° South 288 331 6,700 -1,333 Descending Orlando TRACON
Thu 01:28:17 PM 28.5167 -81.0333 170° South 285 328 5,900 -1,091 Descending Orlando TRACON
Thu 01:29:18 PM 28.4500 -81.0333 180° South 259 298 4,500 -1,488 Descending Orlando TRACON
Thu 01:30:18 PM 28.3667 -81.0333 180° South 273 314 2,900 -750 Descending Orlando TRACON
Thu 01:31:18 PM 28.3000 -81.0500 192° South 249 287 3,000  Climbing Orlando TRACON
Thu 01:32:18 PM 28.2333 -81.0667 192° South 254 292 2,900  Descending Orlando TRACON
Thu 01:33:18 PM 28.1667 -81.0833 192° South 252 290 3,000  Climbing Orlando TRACON
Thu 01:34:24 PM 28.1000 -81.1333 213° Southwest 264 304 2,900 -190 Descending Orlando TRACON
Thu 01:35:24 PM 28.1167 -81.2167 283° West 264 304 2,600 -450 Descending Orlando TRACON
Thu 01:36:24 PM 28.1167 -81.3000 270° West 272 313 2,000 -347 Descending Orlando TRACON
Thu 01:37:25 PM 28.1667 -81.3500 319° Northwest 246 283 1,900 -198 Descending Orlando TRACON
Thu 01:38:25 PM 28.2167 -81.3833 330° Northwest 163 188 1,600 -600 Descending Orlando TRACON
Thu 01:39:25 PM 28.2500 -81.4167 319° Northwest 151 174 700 -900 Descending Orlando TRACON
Thu 01:41:00 PM 28.2833 -81.4333 305° West  Level FlightAware Approximate
Thu 01:48:00 PM 28.2898 -81.4371 333° Northwest  Level Estimated
Thu 01:49:00 PM 28.2898 -81.4371 North  Level Estimated
Thu 01:50:00 PM 28.2898 -81.4371 North  Level Estimated
Thu 01:51:00 PM 28.2898 -81.4371 North  Level Estimated

Login

Don't have an account? Register now (free) for customized features, flight alerts, and more!